Terminal Aerodrome Forecast
Issued by NWS Mt. Holly, NJ

Home | Current Version | Previous Version | Text Only | Print | Product List | Glossary On
Versions: 1 2 3 4 5 6 7 8 9 10 11 12 13 14 15 16 17 18
000
FTUS41 KPHI 191129
TAFACY
TAF
KACY 191129Z 1912/2012 07014G22KT P6SM SCT250
     FM192000 09014G22KT P6SM SCT015 BKN120
     FM192200 09012G20KT P6SM OVC015
     FM200300 08014G22KT P6SM OVC008
     FM200700 09018G26KT 4SM -RA BR OVC008 WS020/14050KT=

USA.gov is the U.S. government's official web portal to all federal, state and local government web resources and services.